createdAt,value
2022-08-19T00:04:32.278Z,7.95
2022-08-19T00:07:01.691Z,7.93
2022-08-19T00:09:31.172Z,9.48
2022-08-19T00:12:00.584Z,9.20
2022-08-19T00:14:33.066Z,9.00
2022-08-19T00:17:04.006Z,9.23
2022-08-19T00:19:33.763Z,8.32
2022-08-19T00:22:03.496Z,9.18
2022-08-19T00:24:32.505Z,9.52
2022-08-19T00:27:25.009Z,9.82
2022-08-19T00:29:53.090Z,9.23
2022-08-19T00:32:24.407Z,9.95
2022-08-19T00:34:54.660Z,10.38
2022-08-19T00:37:24.094Z,10.50
2022-08-19T00:39:53.392Z,10.65
2022-08-19T00:42:24.414Z,10.73
2022-08-19T00:44:54.407Z,11.48
2022-08-19T00:47:23.510Z,11.60
2022-08-19T00:49:57.816Z,10.95
2022-08-19T00:52:31.060Z,11.98
2022-08-19T00:55:00.357Z,12.27
2022-08-19T00:57:34.255Z,11.67
2022-08-19T01:00:08.124Z,12.57
2022-08-19T01:02:36.666Z,12.23
2022-08-19T01:05:08.793Z,12.18
2022-08-19T01:07:39.719Z,11.98
2022-08-19T01:10:12.738Z,11.75
2022-08-19T01:12:41.833Z,11.43
2022-08-19T01:15:15.391Z,11.75
2022-08-19T01:17:45.031Z,13.23
2022-08-19T01:20:15.808Z,12.55
2022-08-19T01:22:49.197Z,12.75
2022-08-19T01:25:20.977Z,12.23
2022-08-19T01:27:53.638Z,12.45
2022-08-19T01:30:25.970Z,13.68
2022-08-19T01:32:55.074Z,13.73
2022-08-19T01:35:28.178Z,14.85
2022-08-19T01:38:02.182Z,13.40
2022-08-19T01:40:34.372Z,14.05
2022-08-19T01:43:04.153Z,13.55
2022-08-19T01:45:36.638Z,13.43
2022-08-19T01:48:06.093Z,14.25
2022-08-19T01:50:36.376Z,14.73
2022-08-19T01:53:11.540Z,14.55
2022-08-19T01:55:42.715Z,13.63
2022-08-19T01:58:14.604Z,14.68
2022-08-19T02:00:44.199Z,13.57
2022-08-19T02:03:13.161Z,13.50
2022-08-19T02:05:42.551Z,14.65
2022-08-19T02:08:13.612Z,14.20
2022-08-19T02:10:43.565Z,13.07
2022-08-19T02:13:13.657Z,13.43
2022-08-19T02:16:04.381Z,14.07
2022-08-19T02:18:35.010Z,13.98
2022-08-19T02:21:03.491Z,13.35
2022-08-19T02:23:34.061Z,13.57
2022-08-19T02:28:30.741Z,13.20
2022-08-19T02:31:02.029Z,12.77
2022-08-19T02:33:31.230Z,13.20
2022-08-19T02:36:00.012Z,14.88
2022-08-19T02:38:27.550Z,14.18
2022-08-19T02:41:00.570Z,12.93
2022-08-19T02:43:32.203Z,13.38
2022-08-19T02:46:03.915Z,12.70
2022-08-19T02:48:33.879Z,12.05
2022-08-19T02:51:03.043Z,11.48
2022-08-19T02:53:31.581Z,11.65
2022-08-19T02:58:48.197Z,10.77
2022-08-19T03:01:23.769Z,12.33
2022-08-19T03:03:52.594Z,12.02
2022-08-19T03:06:21.907Z,11.80
2022-08-19T03:08:51.634Z,11.13
2022-08-19T03:11:24.407Z,11.23
2022-08-19T03:13:55.662Z,11.52
2022-08-19T03:16:26.763Z,11.10
2022-08-19T03:18:58.354Z,10.45
2022-08-19T03:21:28.513Z,12.43
2022-08-19T03:23:57.871Z,11.40
2022-08-19T03:26:27.704Z,11.45
2022-08-19T03:28:58.380Z,11.82
2022-08-19T03:31:43.664Z,11.82
2022-08-19T03:34:15.313Z,11.45
2022-08-19T03:36:43.956Z,13.30
2022-08-19T03:39:13.307Z,12.68
2022-08-19T03:41:46.631Z,17.65
2022-08-19T03:44:21.901Z,12.40
2022-08-19T03:46:52.097Z,18.58
2022-08-19T03:51:58.797Z,12.55
2022-08-19T03:54:28.825Z,12.52
2022-08-19T03:56:59.394Z,12.50
2022-08-19T03:59:30.492Z,12.98
2022-08-19T04:02:01.454Z,13.77
2022-08-19T04:04:31.935Z,15.05
2022-08-19T04:07:00.489Z,14.05
2022-08-19T04:09:29.310Z,14.25
2022-08-19T04:11:59.832Z,12.27
2022-08-19T04:14:31.619Z,14.55
2022-08-19T04:17:00.800Z,12.35
2022-08-19T04:19:32.322Z,15.18
2022-08-19T04:22:00.629Z,18.00
2022-08-19T04:24:29.511Z,13.18
2022-08-19T04:27:00.929Z,13.27
2022-08-19T04:29:31.482Z,12.80
2022-08-19T04:32:09.453Z,13.32
2022-08-19T04:35:01.181Z,13.15
2022-08-19T04:37:35.130Z,13.35
2022-08-19T04:40:25.306Z,13.88
2022-08-19T04:42:55.462Z,12.73
2022-08-19T04:45:24.849Z,14.40
2022-08-19T04:48:19.808Z,13.95
2022-08-19T04:50:47.282Z,14.35
2022-08-19T04:53:16.243Z,14.02
2022-08-19T04:55:45.425Z,14.27
2022-08-19T04:58:15.377Z,14.75
2022-08-19T05:00:44.761Z,14.25
2022-08-19T05:03:14.074Z,14.50
2022-08-19T05:05:45.083Z,14.97
2022-08-19T05:08:15.369Z,14.98
2022-08-19T05:10:45.559Z,13.98
2022-08-19T05:13:16.381Z,15.50
2022-08-19T05:18:33.229Z,14.40
2022-08-19T05:21:24.425Z,15.30
2022-08-19T05:23:53.230Z,15.13
2022-08-19T05:26:21.725Z,15.32
2022-08-19T05:28:54.800Z,14.20
2022-08-19T05:31:23.865Z,16.25
2022-08-19T05:33:52.890Z,16.70
2022-08-19T05:36:21.812Z,16.48
2022-08-19T05:38:51.222Z,17.17
2022-08-19T05:41:20.010Z,17.25
2022-08-19T05:43:49.008Z,17.90
2022-08-19T05:46:27.930Z,18.92
2022-08-19T05:48:57.646Z,18.60
2022-08-19T05:51:29.170Z,18.83
2022-08-19T05:53:59.008Z,19.00
2022-08-19T05:56:27.440Z,18.33
2022-08-19T05:58:56.150Z,18.10
2022-08-19T06:01:28.952Z,17.80
2022-08-19T06:03:57.412Z,18.42
2022-08-19T06:06:26.260Z,18.73
2022-08-19T06:08:54.600Z,17.80
2022-08-19T06:11:25.738Z,17.45
2022-08-19T06:13:57.251Z,17.90
2022-08-19T06:16:31.443Z,19.10
2022-08-19T06:19:02.853Z,22.77
2022-08-19T06:21:32.620Z,19.10
2022-08-19T06:24:01.497Z,19.37
2022-08-19T06:26:30.216Z,19.70
2022-08-19T06:28:59.460Z,19.38
2022-08-19T06:31:32.477Z,20.10
2022-08-19T06:34:02.969Z,20.15
2022-08-19T06:36:35.430Z,21.65
2022-08-19T06:39:06.499Z,20.55
2022-08-19T06:41:41.059Z,21.88
2022-08-19T06:44:19.770Z,21.88
2022-08-19T06:46:54.770Z,23.17
2022-08-19T06:49:23.884Z,22.75
2022-08-19T06:51:53.281Z,23.10
2022-08-19T06:54:24.096Z,24.65
2022-08-19T06:57:01.572Z,25.25
2022-08-19T07:02:07.775Z,25.08
2022-08-19T07:04:39.181Z,25.45
2022-08-19T07:07:21.179Z,25.00
2022-08-19T07:10:00.019Z,22.75
2022-08-19T07:12:35.768Z,23.40
2022-08-19T07:15:05.783Z,23.10
2022-08-19T07:17:36.685Z,23.45
2022-08-19T07:20:10.038Z,23.65
2022-08-19T07:22:49.420Z,23.38
2022-08-19T07:25:19.472Z,20.95
2022-08-19T07:27:54.183Z,21.27
2022-08-19T07:30:24.149Z,21.50
2022-08-19T07:32:57.560Z,22.63
2022-08-19T07:35:26.654Z,21.85
2022-08-19T07:37:55.910Z,21.05
2022-08-19T07:40:25.436Z,22.98
2022-08-19T07:42:54.353Z,24.75
2022-08-19T07:45:23.082Z,24.90
2022-08-19T07:47:51.925Z,26.98
2022-08-19T07:50:23.714Z,27.55
2022-08-19T07:52:52.796Z,26.73
2022-08-19T07:55:43.256Z,27.58
2022-08-19T07:58:15.248Z,28.65
2022-08-19T08:00:44.695Z,32.13
2022-08-19T08:03:13.480Z,32.78
2022-08-19T08:06:02.056Z,30.48
2022-08-19T08:08:48.918Z,29.75
2022-08-19T08:11:20.077Z,28.30
2022-08-19T08:14:00.811Z,27.48
2022-08-19T08:16:32.480Z,31.65
2022-08-19T08:19:01.330Z,30.95
2022-08-19T08:21:31.695Z,32.03
2022-08-19T08:26:34.527Z,33.50
2022-08-19T08:29:03.030Z,34.30
2022-08-19T08:31:42.904Z,36.13
2022-08-19T08:34:12.718Z,34.45
2022-08-19T08:36:46.200Z,33.25
2022-08-19T08:39:17.068Z,31.45
2022-08-19T08:41:53.953Z,33.42
2022-08-19T08:44:25.138Z,31.48
2022-08-19T08:46:59.810Z,31.67
2022-08-19T08:49:39.135Z,33.42
2022-08-19T08:52:13.813Z,31.40
2022-08-19T08:54:48.992Z,31.08
2022-08-19T08:57:37.097Z,30.42
2022-08-19T09:00:15.781Z,31.23
2022-08-19T09:02:50.752Z,30.88
2022-08-19T09:05:22.226Z,32.88
2022-08-19T09:08:02.922Z,31.92
2022-08-19T09:10:44.737Z,30.77
2022-08-19T09:13:23.871Z,30.95
2022-08-19T09:15:59.104Z,32.10
2022-08-19T09:18:29.795Z,31.38
2022-08-19T09:20:58.567Z,32.78
2022-08-19T09:23:28.647Z,33.50
2022-08-19T09:25:56.996Z,31.38
2022-08-19T09:28:27.514Z,32.58
2022-08-19T09:30:56.373Z,33.95
2022-08-19T09:33:24.819Z,34.65
2022-08-19T09:36:05.004Z,34.33
2022-08-19T09:38:43.725Z,31.95
2022-08-19T09:41:14.822Z,34.22
2022-08-19T09:43:48.049Z,33.22
2022-08-19T09:46:19.337Z,33.35
2022-08-19T09:48:53.050Z,32.13
2022-08-19T09:51:27.179Z,32.63
2022-08-19T09:54:02.436Z,33.75
2022-08-19T09:56:34.428Z,33.25
2022-08-19T09:59:05.353Z,33.40
2022-08-19T10:01:34.865Z,33.05
2022-08-19T10:04:14.725Z,31.63
2022-08-19T10:06:51.842Z,30.77
2022-08-19T10:09:26.241Z,30.23
2022-08-19T10:12:03.960Z,28.75
2022-08-19T10:14:33.226Z,31.13
2022-08-19T10:17:17.495Z,29.75
2022-08-19T10:19:55.766Z,31.13
2022-08-19T10:22:26.320Z,30.02
2022-08-19T10:24:56.185Z,28.02
2022-08-19T10:27:26.266Z,27.55
2022-08-19T10:29:55.155Z,26.27
2022-08-19T10:32:28.543Z,27.08
2022-08-19T10:35:06.528Z,24.10
2022-08-19T10:37:35.436Z,26.15
2022-08-19T10:40:06.931Z,25.85
2022-08-19T10:42:36.594Z,20.15
2022-08-19T10:45:07.925Z,18.23
2022-08-19T10:47:37.415Z,15.98
2022-08-19T10:50:28.681Z,18.25
2022-08-19T10:52:58.944Z,15.48
2022-08-19T10:55:47.603Z,13.00
2022-08-19T10:58:19.019Z,10.55
2022-08-19T11:00:54.857Z,10.00
2022-08-19T11:03:23.553Z,8.73
2022-08-19T11:06:00.465Z,8.27
2022-08-19T11:08:29.581Z,7.18
2022-08-19T11:11:04.661Z,7.38
2022-08-19T11:13:37.067Z,6.50
2022-08-19T11:16:08.794Z,6.50
2022-08-19T11:18:39.741Z,6.32
2022-08-19T11:21:10.210Z,5.82
2022-08-19T11:23:39.291Z,5.82
2022-08-19T11:26:09.105Z,6.03
2022-08-19T11:28:38.491Z,5.95
2022-08-19T11:31:11.105Z,5.90
2022-08-19T11:33:40.315Z,5.68
2022-08-19T11:36:09.365Z,5.70
2022-08-19T11:38:41.734Z,5.88
2022-08-19T11:41:11.641Z,5.90
2022-08-19T11:43:41.316Z,6.00
2022-08-19T11:46:17.833Z,5.90
2022-08-19T11:48:46.380Z,5.72
2022-08-19T11:51:21.082Z,4.80
2022-08-19T11:53:50.514Z,5.25
2022-08-19T11:56:22.007Z,5.40
2022-08-19T11:58:50.931Z,4.80
2022-08-19T12:01:22.019Z,4.55
2022-08-19T12:03:52.781Z,4.68
2022-08-19T12:06:26.710Z,4.85
2022-08-19T12:08:55.778Z,4.22
2022-08-19T12:11:26.829Z,4.55
2022-08-19T12:13:56.010Z,4.30
2022-08-19T12:16:27.950Z,4.38
2022-08-19T12:18:58.765Z,4.20
2022-08-19T12:21:29.721Z,4.07
2022-08-19T12:23:59.725Z,3.85
2022-08-19T12:26:32.580Z,4.50
2022-08-19T12:29:06.021Z,4.30
2022-08-19T12:31:35.065Z,4.07
2022-08-19T12:34:03.474Z,4.07
2022-08-19T12:36:32.253Z,4.10
2022-08-19T12:39:01.844Z,4.28
2022-08-19T12:41:31.994Z,4.30
2022-08-19T12:44:00.662Z,4.53
2022-08-19T12:46:29.649Z,4.10
2022-08-19T12:49:00.421Z,4.22
2022-08-19T12:51:33.875Z,4.40
2022-08-19T12:54:02.805Z,4.30
2022-08-19T12:56:34.502Z,4.20
2022-08-19T12:59:03.838Z,4.70
2022-08-19T13:01:33.928Z,4.72
2022-08-19T13:04:02.439Z,4.80
2022-08-19T13:06:31.482Z,4.85
2022-08-19T13:08:59.886Z,4.20
2022-08-19T13:11:33.469Z,4.22
2022-08-19T13:14:04.823Z,4.38
2022-08-19T13:16:34.245Z,4.45
2022-08-19T13:19:05.502Z,4.35
2022-08-19T13:21:34.475Z,4.90
2022-08-19T13:24:02.857Z,5.25
2022-08-19T13:26:31.505Z,5.43
2022-08-19T13:29:17.461Z,5.60
2022-08-19T13:32:05.097Z,5.10
2022-08-19T13:34:36.562Z,5.60
2022-08-19T13:37:06.546Z,6.60
2022-08-19T13:39:36.732Z,7.90
2022-08-19T13:44:34.734Z,8.25
2022-08-19T13:47:08.211Z,7.32
2022-08-19T13:49:37.951Z,6.32
2022-08-19T13:52:07.834Z,14.50
2022-08-19T13:54:36.757Z,6.82
2022-08-19T13:57:05.557Z,8.63
2022-08-19T13:59:34.700Z,6.55
2022-08-19T14:02:06.422Z,7.25
2022-08-19T14:04:35.411Z,7.10
2022-08-19T14:07:04.315Z,7.20
2022-08-19T14:09:33.473Z,7.30
2022-08-19T14:12:01.868Z,7.80
2022-08-19T14:14:31.483Z,8.18
2022-08-19T14:16:59.785Z,7.28
2022-08-19T14:19:30.106Z,10.05
2022-08-19T14:24:28.330Z,7.85
2022-08-19T14:29:45.830Z,6.70
2022-08-19T14:32:16.608Z,7.10
2022-08-19T14:34:47.528Z,7.32
2022-08-19T14:37:17.063Z,6.82
2022-08-19T14:39:46.147Z,6.95
2022-08-19T14:42:15.693Z,6.90
2022-08-19T14:44:44.257Z,8.13
2022-08-19T14:47:13.237Z,7.90
2022-08-19T14:49:44.843Z,8.43
2022-08-19T14:52:18.537Z,7.78
2022-08-19T14:54:47.038Z,9.00
2022-08-19T14:57:16.342Z,7.88
2022-08-19T14:59:45.388Z,7.47
2022-08-19T15:02:33.660Z,8.00
2022-08-19T15:05:03.235Z,11.02
2022-08-19T15:07:33.457Z,14.50
2022-08-19T15:10:02.043Z,9.40
2022-08-19T15:12:32.235Z,9.30
2022-08-19T15:15:00.600Z,10.90
2022-08-19T15:17:43.671Z,11.75
2022-08-19T15:20:18.073Z,11.70
2022-08-19T15:22:50.321Z,10.68
2022-08-19T15:25:21.249Z,9.95
2022-08-19T15:27:51.402Z,9.18
2022-08-19T15:30:23.776Z,10.00
2022-08-19T15:32:55.885Z,10.50
2022-08-19T15:35:25.565Z,11.02
2022-08-19T15:37:57.160Z,10.63
2022-08-19T15:40:28.716Z,11.20
2022-08-19T15:42:59.047Z,11.70
2022-08-19T15:45:32.856Z,12.40
2022-08-19T15:48:02.084Z,12.32
2022-08-19T15:50:32.518Z,11.52
2022-08-19T15:53:05.740Z,11.10
2022-08-19T15:55:36.268Z,12.85
2022-08-19T15:58:28.987Z,13.82
2022-08-19T16:01:17.835Z,12.80
2022-08-19T16:04:13.835Z,13.68
2022-08-19T16:06:46.902Z,16.88
2022-08-19T16:09:17.909Z,12.13
2022-08-19T16:11:56.471Z,12.23
2022-08-19T16:14:27.113Z,11.77
2022-08-19T16:16:56.800Z,12.00
2022-08-19T16:19:26.474Z,11.20
2022-08-19T16:21:57.363Z,11.90
2022-08-19T16:24:29.017Z,11.63
2022-08-19T16:26:58.084Z,12.02
2022-08-19T16:29:34.228Z,12.27
2022-08-19T16:32:11.095Z,12.63
2022-08-19T16:34:41.599Z,12.48
2022-08-19T16:37:11.987Z,11.63
2022-08-19T16:39:43.672Z,11.82
2022-08-19T16:42:14.162Z,10.68
2022-08-19T16:44:45.245Z,11.85
2022-08-19T16:47:15.273Z,11.82
2022-08-19T16:49:54.165Z,11.20
2022-08-19T16:52:26.242Z,11.00
2022-08-19T16:54:57.795Z,11.98
2022-08-19T16:57:26.577Z,11.13
2022-08-19T16:59:55.090Z,11.27
2022-08-19T17:02:25.630Z,11.30
2022-08-19T17:04:59.435Z,10.27
2022-08-19T17:07:29.383Z,10.02
2022-08-19T17:10:05.707Z,10.05
2022-08-19T17:12:35.061Z,10.57
2022-08-19T17:15:03.637Z,10.65
2022-08-19T17:17:33.146Z,9.35
2022-08-19T17:20:03.390Z,8.93
2022-08-19T17:22:32.528Z,10.30
2022-08-19T17:25:00.973Z,9.32
2022-08-19T17:27:32.623Z,9.88
2022-08-19T17:30:02.444Z,9.30
2022-08-19T17:32:35.027Z,9.20
2022-08-19T17:35:04.691Z,7.85
2022-08-19T17:37:35.182Z,7.40
2022-08-19T17:40:05.032Z,7.55
2022-08-19T17:42:35.915Z,7.63
2022-08-19T17:45:04.592Z,6.70
2022-08-19T17:47:33.705Z,6.75
2022-08-19T17:50:02.209Z,6.10
2022-08-19T17:52:31.622Z,6.70
2022-08-19T17:55:00.599Z,6.40
2022-08-19T17:57:29.039Z,6.43
2022-08-19T17:59:59.720Z,5.90
2022-08-19T18:02:28.204Z,6.53
2022-08-19T18:07:27.346Z,10.40
2022-08-19T18:09:56.197Z,5.95
2022-08-19T18:12:31.572Z,7.72
2022-08-19T18:15:02.067Z,6.35
2022-08-19T18:17:31.638Z,6.07
2022-08-19T18:20:00.960Z,5.57
2022-08-19T18:22:31.521Z,6.20
2022-08-19T18:25:04.857Z,7.82
2022-08-19T18:27:33.533Z,6.20
2022-08-19T18:30:04.284Z,7.90
2022-08-19T18:32:34.113Z,6.63
2022-08-19T18:35:03.998Z,6.40
2022-08-19T18:37:32.461Z,6.55
2022-08-19T18:40:18.728Z,6.78
2022-08-19T18:43:17.604Z,7.00
2022-08-19T18:46:07.173Z,8.60
2022-08-19T18:48:53.429Z,9.40
2022-08-19T18:51:26.497Z,9.27
2022-08-19T18:53:58.713Z,8.88
2022-08-19T18:56:31.935Z,10.13
2022-08-19T18:59:01.564Z,10.30
2022-08-19T19:01:36.166Z,9.55
2022-08-19T19:04:10.567Z,10.32
2022-08-19T19:06:41.712Z,10.18
2022-08-19T19:09:11.820Z,9.95
2022-08-19T19:11:44.293Z,10.85
2022-08-19T19:14:27.686Z,12.13
2022-08-19T19:17:07.611Z,10.10
2022-08-19T19:19:57.693Z,10.88
2022-08-19T19:22:27.957Z,13.20
2022-08-19T19:24:56.756Z,11.88
2022-08-19T19:27:25.814Z,12.23
2022-08-19T19:29:54.499Z,12.80
2022-08-19T19:32:36.883Z,11.27
2022-08-19T19:35:09.468Z,11.40
2022-08-19T19:37:38.564Z,11.10
2022-08-19T19:40:07.762Z,11.35
2022-08-19T19:42:36.863Z,10.88
2022-08-19T19:45:06.373Z,11.70
2022-08-19T19:47:36.494Z,11.52
2022-08-19T19:50:20.632Z,11.02
2022-08-19T19:52:49.448Z,11.35
2022-08-19T19:55:18.898Z,11.05
2022-08-19T19:57:49.212Z,10.48
2022-08-19T20:00:19.637Z,10.07
2022-08-19T20:05:21.764Z,10.30
2022-08-19T20:08:08.940Z,9.80
2022-08-19T20:10:38.324Z,9.55
2022-08-19T20:13:07.176Z,9.85
2022-08-19T20:15:40.301Z,9.68
2022-08-19T20:18:14.582Z,10.25
2022-08-19T20:20:45.002Z,12.10
2022-08-19T20:23:13.951Z,10.38
2022-08-19T20:25:42.403Z,10.32
2022-08-19T20:28:12.789Z,9.77
2022-08-19T20:30:46.347Z,10.20
2022-08-19T20:33:17.978Z,10.50
2022-08-19T20:35:46.592Z,10.68
2022-08-19T20:38:16.091Z,11.35
2022-08-19T20:40:44.628Z,10.25
2022-08-19T20:43:14.961Z,11.43
2022-08-19T20:45:43.897Z,11.30
2022-08-19T20:48:12.475Z,10.85
2022-08-19T20:50:42.913Z,10.45
2022-08-19T20:53:13.515Z,11.38
2022-08-19T20:55:45.719Z,11.32
2022-08-19T20:58:14.644Z,11.55
2022-08-19T21:00:46.124Z,11.75
2022-08-19T21:03:17.911Z,10.93
2022-08-19T21:05:48.358Z,11.68
2022-08-19T21:08:18.383Z,11.25
2022-08-19T21:10:47.729Z,10.45
2022-08-19T21:13:17.041Z,10.52
2022-08-19T21:15:46.284Z,10.57
2022-08-19T21:18:20.863Z,11.45
2022-08-19T21:20:51.996Z,10.95
2022-08-19T21:23:23.261Z,11.05
2022-08-19T21:25:54.638Z,11.40
2022-08-19T21:28:34.621Z,10.63
2022-08-19T21:31:10.623Z,10.60
2022-08-19T21:33:40.754Z,11.00
2022-08-19T21:36:11.667Z,10.35
2022-08-19T21:38:40.630Z,12.25
2022-08-19T21:41:08.937Z,10.57
2022-08-19T21:43:39.017Z,9.88
2022-08-19T21:46:08.932Z,11.13
2022-08-19T21:48:37.978Z,12.77
2022-08-19T21:51:06.592Z,11.00
2022-08-19T21:53:37.316Z,12.52
2022-08-19T21:56:07.230Z,13.55
2022-08-19T21:58:37.206Z,14.18
2022-08-19T22:01:07.906Z,13.55
2022-08-19T22:03:38.335Z,14.15
2022-08-19T22:06:06.990Z,15.10
2022-08-19T22:08:36.925Z,13.88
2022-08-19T22:11:06.397Z,14.80
2022-08-19T22:13:39.939Z,16.05
2022-08-19T22:16:09.796Z,14.88
2022-08-19T22:18:38.206Z,15.82
2022-08-19T22:21:11.700Z,15.98
2022-08-19T22:23:44.298Z,15.77
2022-08-19T22:26:13.809Z,16.25
2022-08-19T22:28:42.695Z,15.43
2022-08-19T22:31:12.461Z,15.93
2022-08-19T22:33:41.546Z,15.85
2022-08-19T22:36:10.757Z,15.30
2022-08-19T22:38:39.102Z,14.88
2022-08-19T22:41:09.382Z,14.40
2022-08-19T22:43:37.901Z,15.55
2022-08-19T22:46:17.163Z,16.27
2022-08-19T22:48:45.874Z,14.32
2022-08-19T22:51:32.162Z,15.55
2022-08-19T22:54:00.684Z,15.10
2022-08-19T22:56:32.833Z,15.60
2022-08-19T22:59:02.579Z,13.57
2022-08-19T23:01:32.881Z,14.63
2022-08-19T23:04:03.657Z,14.88
2022-08-19T23:06:34.640Z,15.00
2022-08-19T23:09:07.759Z,13.82
2022-08-19T23:11:41.869Z,14.32
2022-08-19T23:14:11.267Z,13.60
2022-08-19T23:16:41.337Z,14.00
2022-08-19T23:19:10.792Z,12.93
2022-08-19T23:21:39.682Z,12.55
2022-08-19T23:24:08.970Z,13.00
2022-08-19T23:26:59.745Z,13.95
2022-08-19T23:29:45.596Z,14.07
2022-08-19T23:32:16.325Z,13.88
2022-08-19T23:34:45.973Z,14.32
2022-08-19T23:37:14.558Z,15.13
2022-08-19T23:39:43.743Z,15.57
2022-08-19T23:42:15.254Z,14.88
2022-08-19T23:44:52.179Z,15.45
2022-08-19T23:47:21.868Z,14.30
2022-08-19T23:49:50.808Z,15.48
2022-08-19T23:52:19.530Z,15.85
2022-08-19T23:54:48.424Z,16.45
2022-08-19T23:57:18.140Z,16.08
2022-08-19T23:59:47.135Z,17.23
